DAL9961 RKSI-KSEA
Flight info
| Callsign | DAL9961 |
|---|---|
| Flight time | N/A |
| Altitude | 39000 |
| Route | EGOBA2C EGOBA Y697 KAE Y437 TENAS L512 GTC Y512 ADNAP R591 ADGOR DCT 45N160E 46N170E 46N180E 47N170W 48N160W 49N150W 50N140W DCT ORNAI DCT TOU MARNR8 |
| Aircraft | A333/H-SDE3GHIJ2J3J5M1RVWXY/LB2D1 |
Departure
| Time | 2026-05-05 03:36 |
|---|---|
| Airport | Incheon International Airport (RKSI) |
Arrival
| Time | N/A |
|---|---|
| Airport | Seattle–Tacoma International Airport (KSEA) |
| Time | Latitude | Longitude | Altitude | Speed | Heading |
|---|---|---|---|---|---|
| 2026-05-05 03:17 | 37.46777 | 126.42571 | 33 ft | 0 kts | 233° |
| 2026-05-05 03:23 | 37.46782 | 126.42578 | 34 ft | 2 kts | 233° |
| 2026-05-05 03:23 | 37.46789 | 126.42591 | 34 ft | 0 kts | 233° |
| 2026-05-05 03:23 | 37.46796 | 126.42602 | 34 ft | 2 kts | 228° |
| 2026-05-05 03:23 | 37.46807 | 126.42615 | 34 ft | 2 kts | 217° |
| 2026-05-05 03:24 | 37.46819 | 126.42626 | 34 ft | 2 kts | 208° |
| 2026-05-05 03:24 | 37.46833 | 126.42635 | 34 ft | 2 kts | 199° |
| 2026-05-05 03:24 | 37.46846 | 126.42639 | 34 ft | 0 kts | 191° |
| 2026-05-05 03:24 | 37.46849 | 126.42640 | 34 ft | 0 kts | 189° |
| 2026-05-05 03:27 | 37.46844 | 126.42639 | 33 ft | 4 kts | 184° |
| 2026-05-05 03:28 | 37.46782 | 126.42681 | 33 ft | 17 kts | 141° |
| 2026-05-05 03:28 | 37.46682 | 126.42784 | 33 ft | 19 kts | 143° |
| 2026-05-05 03:28 | 37.46574 | 126.42881 | 33 ft | 19 kts | 144° |
| 2026-05-05 03:28 | 37.46466 | 126.42960 | 33 ft | 14 kts | 176° |
| 2026-05-05 03:29 | 37.46393 | 126.42874 | 33 ft | 15 kts | 238° |
| 2026-05-05 03:29 | 37.46397 | 126.42749 | 33 ft | 15 kts | 319° |
| 2026-05-05 03:29 | 37.46492 | 126.42667 | 33 ft | 16 kts | 326° |
| 2026-05-05 03:29 | 37.46594 | 126.42581 | 33 ft | 17 kts | 324° |
| 2026-05-05 03:30 | 37.46697 | 126.42489 | 33 ft | 18 kts | 324° |
| 2026-05-05 03:30 | 37.46806 | 126.42390 | 33 ft | 19 kts | 324° |
| 2026-05-05 03:30 | 37.46920 | 126.42287 | 33 ft | 16 kts | 324° |
| 2026-05-05 03:30 | 37.47016 | 126.42284 | 33 ft | 15 kts | 45° |
| 2026-05-05 03:31 | 37.47081 | 126.42396 | 33 ft | 16 kts | 54° |
| 2026-05-05 03:31 | 37.47150 | 126.42519 | 33 ft | 17 kts | 55° |
| 2026-05-05 03:31 | 37.47221 | 126.42647 | 33 ft | 18 kts | 55° |
| 2026-05-05 03:31 | 37.47296 | 126.42782 | 33 ft | 19 kts | 55° |
| 2026-05-05 03:32 | 37.47377 | 126.42923 | 34 ft | 20 kts | 54° |
| 2026-05-05 03:32 | 37.47460 | 126.43069 | 33 ft | 21 kts | 54° |
| 2026-05-05 03:32 | 37.47545 | 126.43224 | 33 ft | 21 kts | 54° |
| 2026-05-05 03:32 | 37.47637 | 126.43382 | 33 ft | 22 kts | 54° |
| 2026-05-05 03:33 | 37.47710 | 126.43511 | 33 ft | 16 kts | 54° |
| 2026-05-05 03:33 | 37.47778 | 126.43559 | 34 ft | 11 kts | 346° |
| 2026-05-05 03:33 | 37.47850 | 126.43501 | 34 ft | 12 kts | 324° |
| 2026-05-05 03:33 | 37.47925 | 126.43434 | 33 ft | 13 kts | 324° |
| 2026-05-05 03:34 | 37.47998 | 126.43374 | 33 ft | 7 kts | 347° |
| 2026-05-05 03:34 | 37.48037 | 126.43413 | 33 ft | 8 kts | 56° |
| 2026-05-05 03:34 | 37.48071 | 126.43477 | 34 ft | 9 kts | 55° |
| 2026-05-05 03:34 | 37.48110 | 126.43547 | 33 ft | 10 kts | 53° |
| 2026-05-05 03:35 | 37.48143 | 126.43603 | 34 ft | 0 kts | 53° |
| 2026-05-05 03:35 | 37.48152 | 126.43648 | 33 ft | 10 kts | 101° |
| 2026-05-05 03:35 | 37.48080 | 126.43725 | 34 ft | 23 kts | 145° |
| 2026-05-05 03:35 | 37.47736 | 126.44022 | 34 ft | 98 kts | 143° |
| 2026-05-05 03:36 | 37.46987 | 126.44700 | 40 ft | 164 kts | 147° |
| 2026-05-05 03:36 | 37.46006 | 126.45602 | 633 ft | 176 kts | 144° |
| 2026-05-05 03:36 | 37.45030 | 126.46512 | 1440 ft | 181 kts | 147° |
| 2026-05-05 03:36 | 37.44088 | 126.47593 | 2045 ft | 189 kts | 130° |
| 2026-05-05 03:37 | 37.43449 | 126.48962 | 2756 ft | 175 kts | 127° |
| 2026-05-05 03:37 | 37.42757 | 126.50133 | 3386 ft | 162 kts | 132° |
| 2026-05-05 03:37 | 37.42064 | 126.51208 | 3868 ft | 158 kts | 133° |
| 2026-05-05 03:37 | 37.41366 | 126.52262 | 4257 ft | 157 kts | 134° |
| 2026-05-05 03:38 | 37.40665 | 126.53313 | 4624 ft | 159 kts | 134° |
| 2026-05-05 03:38 | 37.39953 | 126.54378 | 4999 ft | 159 kts | 134° |
| 2026-05-05 03:38 | 37.39234 | 126.55453 | 5358 ft | 163 kts | 133° |
| 2026-05-05 03:38 | 37.38494 | 126.56557 | 5911 ft | 171 kts | 133° |
| 2026-05-05 03:39 | 37.37700 | 126.57742 | 6407 ft | 186 kts | 133° |
| 2026-05-05 03:39 | 37.36683 | 126.58786 | 6898 ft | 196 kts | 162° |
| 2026-05-05 03:39 | 37.35345 | 126.59327 | 7463 ft | 209 kts | 163° |
| 2026-05-05 03:39 | 37.33928 | 126.59934 | 7978 ft | 228 kts | 162° |
| 2026-05-05 03:40 | 37.32339 | 126.60619 | 8579 ft | 253 kts | 162° |
| 2026-05-05 03:40 | 37.30639 | 126.61355 | 9395 ft | 272 kts | 162° |
| 2026-05-05 03:40 | 37.28846 | 126.62354 | 10181 ft | 294 kts | 145° |
| 2026-05-05 03:40 | 37.27439 | 126.64271 | 10986 ft | 316 kts | 121° |
| 2026-05-05 03:41 | 37.26722 | 126.66932 | 11855 ft | 336 kts | 98° |